πŸ“Š DonnΓ©es MΓ©tΓ©o - Bordeaux

Total mesures

14,339

TempΓ©rature moyenne

18.8Β°C

Temp. Min/Max

2.9Β° / 42.4Β°

HumiditΓ© moyenne

64.9%

Pression moyenne

1014.7 hPa
enregistrements
ID Date/Heure Temp (Β°C) HumiditΓ© (%) Pression (hPa) Tendance LuminositΓ© (lux) Situation
13639 25/08/2026 09:15 23.7 75.0 1,009.5 β†’ Stable 59,352 pluvieux-gris (approx.)
13638 25/08/2026 08:45 23.0 80.0 1,009.1 β†’ Stable 53,976 pluvieux-gris (approx.)
13637 25/08/2026 08:30 22.3 82.0 1,009.1 β†’ Stable 44,172 pluvieux-gris (approx.)
13636 25/08/2026 08:15 21.9 82.0 1,009.1 β†’ Stable 39,816 pluvieux-gris (approx.)
13635 25/08/2026 07:45 21.5 84.0 1,008.9 β†’ Stable 25,092 pluvieux-gris (approx.)
13634 25/08/2026 07:15 21.0 86.0 1,008.9 β†’ Stable 15,552 pluvieux-gris (approx.)
13633 25/08/2026 07:00 20.9 87.0 1,008.9 β†’ Stable 15,924 pluvieux-gris (approx.)
13632 25/08/2026 06:45 20.8 87.0 1,008.7 β†’ Stable 13,056 pluvieux-gris (approx.)
13631 25/08/2026 06:15 20.9 88.0 1,008.7 β†’ Stable 4,536 pluvieux-gris (approx.)
13630 25/08/2026 05:45 20.6 90.0 1,008.0 β†’ Stable 1,476 pluvieux-gris (approx.)
13629 25/08/2026 05:15 20.8 90.0 1,008.0 β†’ Stable 0 pluvieux-gris (approx.)
13628 25/08/2026 05:00 20.7 89.0 1,008.0 β†’ Stable 0 pluvieux-gris (approx.)
13627 25/08/2026 04:45 20.5 89.0 1,007.4 β†’ Stable 0 pluvieux-gris (approx.)
13626 25/08/2026 04:15 21.0 89.0 1,007.4 β†’ Stable 0 pluvieux-gris (approx.)
13625 25/08/2026 03:45 21.0 88.0 1,007.3 β†’ Stable 0 pluvieux-gris (approx.)
13624 25/08/2026 03:30 20.8 90.0 1,007.3 β†’ Stable 0 pluvieux-gris (approx.)
13623 25/08/2026 03:15 20.7 90.0 1,007.3 β†’ Stable 0 pluvieux-gris (approx.)
13622 25/08/2026 02:45 21.4 85.0 1,006.8 β†’ Stable 0 pluvieux-gris (approx.)
13621 25/08/2026 02:15 21.1 81.0 1,006.8 β†’ Stable 0 pluvieux-gris (approx.)
13620 25/08/2026 02:00 21.3 80.0 1,006.8 β†’ Stable 0 pluvieux-gris (approx.)
13619 25/08/2026 01:45 21.4 79.0 1,007.1 β†’ Stable 0 pluvieux-gris (approx.)
13618 25/08/2026 01:30 21.3 75.0 1,007.1 β†’ Stable 0 pluvieux-gris (approx.)
13617 25/08/2026 01:15 21.5 74.0 1,007.2 β†’ Stable 0 pluvieux-gris (approx.)
13616 25/08/2026 01:00 21.4 74.0 1,007.2 β†’ Stable 0 pluvieux-gris (approx.)
13615 25/08/2026 00:45 21.6 74.0 1,007.6 β†’ Stable 0 pluvieux-gris (approx.)
13614 25/08/2026 00:30 21.8 77.0 1,007.6 β†’ Stable 0 pluvieux-gris (approx.)
13613 25/08/2026 00:15 21.9 77.0 1,007.6 β†’ Stable 0 pluvieux-gris (approx.)
13612 25/08/2026 00:00 22.0 75.0 1,007.6 β†’ Stable 0 pluvieux-gris (approx.)
13611 24/08/2026 23:45 22.1 73.0 1,007.3 β†’ Stable 0 pluvieux-gris (approx.)
13610 24/08/2026 23:30 21.6 73.0 1,007.3 β†’ Stable 0 pluvieux-gris (approx.)
13609 24/08/2026 23:15 21.7 73.0 1,007.3 β†’ Stable 0 pluvieux-gris (approx.)
13608 24/08/2026 22:45 22.1 73.0 1,007.1 β†’ Stable 0 pluvieux-gris (approx.)
13607 24/08/2026 22:30 22.4 76.0 1,007.1 β†’ Stable 0 pluvieux-gris (approx.)
13606 24/08/2026 22:15 22.4 76.0 1,007.1 β†’ Stable 0 pluvieux-gris (approx.)
13605 24/08/2026 21:45 22.2 76.0 1,007.8 β†’ Stable 0 pluvieux-gris (approx.)
13604 24/08/2026 21:15 21.1 71.0 1,007.8 β†’ Stable 0 pluvieux-gris (approx.)
13603 24/08/2026 21:00 21.4 68.0 1,007.8 β†’ Stable 0 frais-stable
13602 24/08/2026 20:45 21.7 67.0 1,007.2 β†’ Stable 0 frais-stable
13601 24/08/2026 20:30 21.5 71.0 1,007.2 β†’ Stable 0 pluvieux-gris (approx.)
13600 24/08/2026 20:15 21.6 71.0 1,007.2 β†’ Stable 0 pluvieux-gris (approx.)
13599 24/08/2026 20:00 22.2 72.0 1,007.2 β†’ Stable 0 pluvieux-gris (approx.)
13598 24/08/2026 19:45 22.8 70.0 1,005.7 β†’ Stable 0 pluvieux-gris (approx.)
13597 24/08/2026 19:30 24.5 63.0 1,005.7 β†’ Stable 0 confortablement-chaud (approx.)
13596 24/08/2026 19:15 24.9 61.0 1,005.7 β†’ Stable 0 confortablement-chaud (approx.)
13595 24/08/2026 18:45 25.7 56.0 1,005.8 β†’ Stable 1,020 confortablement-chaud (approx.)
13594 24/08/2026 18:30 24.7 59.0 1,005.8 β†’ Stable 5,004 confortablement-chaud (approx.)
13593 24/08/2026 18:15 25.1 58.0 1,005.8 β†’ Stable 9,540 confortablement-chaud (approx.)
13592 24/08/2026 17:45 26.4 53.0 1,005.2 β†’ Stable 17,412 confortablement-chaud (approx.)
13591 24/08/2026 17:15 26.7 50.0 1,005.2 β†’ Stable 22,128 confortablement-chaud (approx.)
13590 24/08/2026 16:45 27.2 48.0 1,004.7 β†’ Stable 26,940 confortablement-chaud (approx.)
13589 24/08/2026 16:30 30.2 34.0 1,004.7 β†’ Stable 23,892 chaleur-seche
13588 24/08/2026 16:15 30.5 33.0 1,004.7 β†’ Stable 27,036 chaleur-seche
13587 24/08/2026 15:45 28.9 41.0 1,005.6 β†’ Stable 30,744 confortablement-chaud (approx.)
13586 24/08/2026 15:15 25.4 63.0 1,005.6 β†’ Stable 27,312 confortablement-chaud (approx.)
13585 24/08/2026 14:45 26.9 64.0 1,005.5 β†’ Stable 30,180 confortablement-chaud (approx.)
13584 24/08/2026 14:30 29.8 35.0 1,005.5 β†’ Stable 16,020 conditions-neutrales-ou-non-definies
13583 24/08/2026 14:15 29.9 35.0 1,005.5 β†’ Stable 15,468 conditions-neutrales-ou-non-definies
13582 24/08/2026 13:45 30.1 33.0 1,004.9 β†’ Stable 26,292 chaleur-seche
13581 24/08/2026 13:30 30.9 31.0 1,005.1 β†’ Stable 41,856 chaleur-seche
13580 24/08/2026 13:15 31.6 28.0 1,005.1 β†’ Stable 43,608 chaleur-seche
13579 24/08/2026 12:45 32.3 67.0 1,006.2 β†’ Stable 59,448 conditions-neutrales-ou-non-definies
13578 24/08/2026 12:30 32.7 35.0 1,006.2 β†’ Stable 35,280 chaleur-seche
13577 24/08/2026 12:15 32.3 40.0 1,006.2 β†’ Stable 37,404 conditions-neutrales-ou-non-definies
13576 24/08/2026 11:45 30.1 51.0 1,006.8 β†’ Stable 87,780 confortablement-chaud (approx.)
13575 24/08/2026 11:15 30.4 50.0 1,006.8 β†’ Stable 55,368 conditions-neutrales-ou-non-definies
13574 24/08/2026 10:45 29.0 53.0 1,007.1 β†’ Stable 68,892 confortablement-chaud (approx.)
13573 24/08/2026 10:15 27.6 56.0 1,007.1 β†’ Stable 60,468 confortablement-chaud (approx.)
13572 24/08/2026 09:45 27.1 55.0 1,007.5 β†’ Stable 68,976 confortablement-chaud (approx.)
13571 24/08/2026 09:30 26.1 60.0 1,007.5 β†’ Stable 69,168 confortablement-chaud (approx.)
13570 24/08/2026 09:15 25.5 61.0 1,007.5 β†’ Stable 67,500 confortablement-chaud (approx.)
13569 24/08/2026 09:00 25.1 60.0 1,007.5 β†’ Stable 64,356 confortablement-chaud (approx.)
13568 24/08/2026 08:45 24.6 60.0 1,008.4 β†’ Stable 61,200 confortablement-chaud (approx.)
13567 24/08/2026 08:15 23.2 66.0 1,008.4 β†’ Stable 54,444 conditions-neutrales-ou-non-definies
13566 24/08/2026 07:45 21.8 73.0 1,009.1 β†’ Stable 41,112 pluvieux-gris (approx.)
13565 24/08/2026 07:15 20.8 81.0 1,009.1 β†’ Stable 31,020 pluvieux-gris (approx.)
13564 24/08/2026 07:00 20.3 84.0 1,009.1 β†’ Stable 24,996 pluvieux-gris (approx.)
13563 24/08/2026 06:45 19.9 86.0 1,009.2 β†’ Stable 19,908 pluvieux-gris (approx.)
13562 24/08/2026 06:30 20.0 84.0 1,009.2 β†’ Stable 15,000 pluvieux-gris (approx.)
13561 24/08/2026 06:15 19.9 84.0 1,009.2 β†’ Stable 10,272 pluvieux-gris (approx.)
13560 24/08/2026 05:45 19.7 83.0 1,009.0 β†’ Stable 2,124 pluvieux-gris (approx.)
13559 24/08/2026 05:15 19.6 81.0 1,009.0 β†’ Stable 0 pluvieux-gris (approx.)
13558 24/08/2026 04:45 20.0 77.0 1,008.7 β†’ Stable 0 pluvieux-gris (approx.)
13557 24/08/2026 04:30 20.5 76.0 1,008.7 β†’ Stable 0 pluvieux-gris (approx.)
13556 24/08/2026 04:15 20.7 75.0 1,008.7 β†’ Stable 0 pluvieux-gris (approx.)
13555 24/08/2026 03:45 21.1 72.0 1,009.4 β†’ Stable 0 pluvieux-gris (approx.)
13554 24/08/2026 03:15 21.9 68.0 1,009.4 β†’ Stable 0 frais-stable
13553 24/08/2026 03:00 22.1 67.0 1,009.4 β†’ Stable 0 frais-stable
13552 24/08/2026 02:45 22.1 69.0 1,008.2 β†’ Stable 0 frais-stable
13551 24/08/2026 02:30 23.6 55.0 1,008.2 β†’ Stable 0 conditions-neutrales-ou-non-definies
13550 24/08/2026 02:15 23.7 55.0 1,008.2 β†’ Stable 0 conditions-neutrales-ou-non-definies
13549 24/08/2026 02:00 23.9 53.0 1,008.2 β†’ Stable 0 conditions-neutrales-ou-non-definies
13548 24/08/2026 01:45 24.1 52.0 1,008.3 β†’ Stable 0 confortablement-chaud (approx.)
13547 24/08/2026 01:30 22.3 69.0 1,008.3 β†’ Stable 0 frais-stable
13546 24/08/2026 01:15 22.7 66.0 1,008.2 β†’ Stable 0 frais-stable
13545 24/08/2026 01:00 22.8 65.0 1,008.2 β†’ Stable 0 frais-stable
13544 24/08/2026 00:45 22.5 68.0 1,009.4 β†’ Stable 0 frais-stable
13543 24/08/2026 00:30 22.3 72.0 1,009.4 β†’ Stable 0 pluvieux-gris (approx.)
13542 24/08/2026 00:15 22.1 74.0 1,009.4 β†’ Stable 0 pluvieux-gris (approx.)
13541 23/08/2026 23:45 22.0 73.0 1,011.1 β†’ Stable 0 pluvieux-gris (approx.)
13540 23/08/2026 23:30 23.0 68.0 1,011.1 β†’ Stable 0 frais-stable